sensor_id;sensor_type;location;lat;lon;timestamp;P1;durP1;ratioP1;P2;durP2;ratioP2
71730;SDS011;65964;43.496;3.710;2023-03-14T00:00:37;3.92;;;1.30;;
71730;SDS011;65964;43.496;3.710;2023-03-14T00:03:03;3.75;;;1.50;;
71730;SDS011;65964;43.496;3.710;2023-03-14T00:05:29;5.93;;;1.27;;
71730;SDS011;65964;43.496;3.710;2023-03-14T00:07:55;3.05;;;1.10;;
71730;SDS011;65964;43.496;3.710;2023-03-14T00:10:21;4.72;;;1.40;;
71730;SDS011;65964;43.496;3.710;2023-03-14T00:12:47;2.63;;;1.20;;
71730;SDS011;65964;43.496;3.710;2023-03-14T00:15:13;3.72;;;1.20;;
71730;SDS011;65964;43.496;3.710;2023-03-14T00:17:40;4.45;;;1.35;;
71730;SDS011;65964;43.496;3.710;2023-03-14T00:20:08;6.13;;;1.45;;
71730;SDS011;65964;43.496;3.710;2023-03-14T00:22:36;5.00;;;1.60;;
71730;SDS011;65964;43.496;3.710;2023-03-14T00:25:03;6.15;;;1.52;;
71730;SDS011;65964;43.496;3.710;2023-03-14T00:27:29;5.28;;;1.88;;
71730;SDS011;65964;43.496;3.710;2023-03-14T00:29:55;4.82;;;1.70;;
71730;SDS011;65964;43.496;3.710;2023-03-14T00:32:21;6.80;;;1.52;;
71730;SDS011;65964;43.496;3.710;2023-03-14T00:34:48;5.05;;;1.50;;
71730;SDS011;65964;43.496;3.710;2023-03-14T00:37:14;5.25;;;1.42;;
71730;SDS011;65964;43.496;3.710;2023-03-14T00:39:40;6.75;;;1.52;;
71730;SDS011;65964;43.496;3.710;2023-03-14T00:42:06;4.80;;;1.50;;
71730;SDS011;65964;43.496;3.710;2023-03-14T00:44:32;4.40;;;1.27;;
71730;SDS011;65964;43.496;3.710;2023-03-14T00:46:58;3.75;;;1.35;;
71730;SDS011;65964;43.496;3.710;2023-03-14T00:49:24;5.25;;;1.60;;
71730;SDS011;65964;43.496;3.710;2023-03-14T00:51:50;5.25;;;1.58;;
71730;SDS011;65964;43.496;3.710;2023-03-14T00:54:17;3.67;;;1.40;;
71730;SDS011;65964;43.496;3.710;2023-03-14T00:56:43;4.35;;;1.50;;
71730;SDS011;65964;43.496;3.710;2023-03-14T00:59:09;3.45;;;1.40;;
71730;SDS011;65964;43.496;3.710;2023-03-14T01:01:35;5.07;;;1.60;;
71730;SDS011;65964;43.496;3.710;2023-03-14T01:04:01;4.53;;;1.40;;
71730;SDS011;65964;43.496;3.710;2023-03-14T01:06:28;5.38;;;1.40;;
71730;SDS011;65964;43.496;3.710;2023-03-14T01:08:55;9.15;;;1.63;;
71730;SDS011;65964;43.496;3.710;2023-03-14T01:11:23;5.38;;;1.98;;
71730;SDS011;65964;43.496;3.710;2023-03-14T01:13:49;5.10;;;1.70;;
71730;SDS011;65964;43.496;3.710;2023-03-14T01:16:15;3.25;;;1.40;;
71730;SDS011;65964;43.496;3.710;2023-03-14T01:18:42;4.13;;;1.70;;
71730;SDS011;65964;43.496;3.710;2023-03-14T01:21:10;4.05;;;1.63;;
71730;SDS011;65964;43.496;3.710;2023-03-14T01:23:36;3.80;;;1.70;;
71730;SDS011;65964;43.496;3.710;2023-03-14T01:26:02;4.80;;;1.73;;
71730;SDS011;65964;43.496;3.710;2023-03-14T01:28:28;4.55;;;1.80;;
71730;SDS011;65964;43.496;3.710;2023-03-14T01:30:54;3.72;;;1.45;;
71730;SDS011;65964;43.496;3.710;2023-03-14T01:33:20;4.15;;;1.60;;
71730;SDS011;65964;43.496;3.710;2023-03-14T01:35:49;3.53;;;1.50;;
71730;SDS011;65964;43.496;3.710;2023-03-14T01:38:15;8.13;;;1.75;;
71730;SDS011;65964;43.496;3.710;2023-03-14T01:40:42;5.70;;;1.90;;
71730;SDS011;65964;43.496;3.710;2023-03-14T01:43:18;6.47;;;2.10;;
71730;SDS011;65964;43.496;3.710;2023-03-14T01:48:36;6.38;;;1.85;;
71730;SDS011;65964;43.496;3.710;2023-03-14T01:51:02;6.45;;;1.90;;
71730;SDS011;65964;43.496;3.710;2023-03-14T01:53:30;9.18;;;2.10;;
71730;SDS011;65964;43.496;3.710;2023-03-14T01:55:56;8.57;;;2.13;;
71730;SDS011;65964;43.496;3.710;2023-03-14T01:58:23;11.57;;;3.13;;
71730;SDS011;65964;43.496;3.710;2023-03-14T02:00:52;7.22;;;1.63;;
71730;SDS011;65964;43.496;3.710;2023-03-14T02:03:18;10.93;;;2.10;;
71730;SDS011;65964;43.496;3.710;2023-03-14T02:05:46;11.88;;;2.85;;
71730;SDS011;65964;43.496;3.710;2023-03-14T02:08:16;8.43;;;2.00;;
71730;SDS011;65964;43.496;3.710;2023-03-14T02:10:45;6.57;;;1.95;;
71730;SDS011;65964;43.496;3.710;2023-03-14T02:13:12;11.75;;;2.38;;
71730;SDS011;65964;43.496;3.710;2023-03-14T02:15:39;8.23;;;2.22;;
71730;SDS011;65964;43.496;3.710;2023-03-14T02:18:06;10.63;;;2.47;;
71730;SDS011;65964;43.496;3.710;2023-03-14T02:22:58;8.48;;;2.55;;
71730;SDS011;65964;43.496;3.710;2023-03-14T02:27:51;14.32;;;2.80;;
71730;SDS011;65964;43.496;3.710;2023-03-14T02:30:21;9.20;;;2.50;;
71730;SDS011;65964;43.496;3.710;2023-03-14T02:32:48;9.40;;;1.90;;
71730;SDS011;65964;43.496;3.710;2023-03-14T02:35:24;8.52;;;2.38;;
71730;SDS011;65964;43.496;3.710;2023-03-14T02:37:52;8.73;;;2.25;;
71730;SDS011;65964;43.496;3.710;2023-03-14T02:40:19;9.27;;;2.10;;
71730;SDS011;65964;43.496;3.710;2023-03-14T02:42:45;8.63;;;2.10;;
71730;SDS011;65964;43.496;3.710;2023-03-14T02:47:39;8.85;;;2.20;;
71730;SDS011;65964;43.496;3.710;2023-03-14T02:50:08;9.68;;;2.10;;
71730;SDS011;65964;43.496;3.710;2023-03-14T02:52:35;9.55;;;2.42;;
71730;SDS011;65964;43.496;3.710;2023-03-14T02:55:01;11.40;;;2.30;;
71730;SDS011;65964;43.496;3.710;2023-03-14T02:57:28;7.35;;;2.47;;
71730;SDS011;65964;43.496;3.710;2023-03-14T02:59:57;9.40;;;2.55;;
71730;SDS011;65964;43.496;3.710;2023-03-14T03:02:23;8.50;;;2.80;;
71730;SDS011;65964;43.496;3.710;2023-03-14T03:04:49;8.75;;;2.80;;
71730;SDS011;65964;43.496;3.710;2023-03-14T03:07:15;9.02;;;2.65;;
71730;SDS011;65964;43.496;3.710;2023-03-14T03:09:41;9.98;;;2.53;;
71730;SDS011;65964;43.496;3.710;2023-03-14T03:12:07;7.07;;;2.22;;
71730;SDS011;65964;43.496;3.710;2023-03-14T03:14:33;9.70;;;2.47;;
71730;SDS011;65964;43.496;3.710;2023-03-14T03:16:59;11.93;;;2.47;;
71730;SDS011;65964;43.496;3.710;2023-03-14T03:19:25;10.38;;;2.83;;
71730;SDS011;65964;43.496;3.710;2023-03-14T03:21:51;10.20;;;2.50;;
71730;SDS011;65964;43.496;3.710;2023-03-14T03:24:17;8.90;;;2.47;;
71730;SDS011;65964;43.496;3.710;2023-03-14T03:26:43;9.10;;;2.78;;
71730;SDS011;65964;43.496;3.710;2023-03-14T03:29:09;15.80;;;2.92;;
71730;SDS011;65964;43.496;3.710;2023-03-14T03:31:38;9.45;;;2.47;;
71730;SDS011;65964;43.496;3.710;2023-03-14T03:34:04;9.18;;;2.10;;
71730;SDS011;65964;43.496;3.710;2023-03-14T03:36:30;8.30;;;2.50;;
71730;SDS011;65964;43.496;3.710;2023-03-14T03:38:56;6.47;;;2.10;;
71730;SDS011;65964;43.496;3.710;2023-03-14T03:41:22;10.70;;;2.45;;
71730;SDS011;65964;43.496;3.710;2023-03-14T03:43:48;11.02;;;2.13;;
71730;SDS011;65964;43.496;3.710;2023-03-14T03:46:14;8.38;;;2.40;;
71730;SDS011;65964;43.496;3.710;2023-03-14T03:48:40;8.30;;;2.13;;
71730;SDS011;65964;43.496;3.710;2023-03-14T03:51:07;9.73;;;2.35;;
71730;SDS011;65964;43.496;3.710;2023-03-14T03:53:33;8.52;;;2.40;;
71730;SDS011;65964;43.496;3.710;2023-03-14T03:55:59;11.68;;;2.33;;
71730;SDS011;65964;43.496;3.710;2023-03-14T03:58:26;9.15;;;2.63;;
71730;SDS011;65964;43.496;3.710;2023-03-14T04:00:52;9.43;;;2.20;;
71730;SDS011;65964;43.496;3.710;2023-03-14T04:03:18;12.68;;;2.58;;
71730;SDS011;65964;43.496;3.710;2023-03-14T04:05:44;10.70;;;2.28;;
71730;SDS011;65964;43.496;3.710;2023-03-14T04:08:10;10.40;;;2.45;;
71730;SDS011;65964;43.496;3.710;2023-03-14T04:10:36;11.02;;;2.30;;
71730;SDS011;65964;43.496;3.710;2023-03-14T04:13:02;36.28;;;3.10;;
71730;SDS011;65964;43.496;3.710;2023-03-14T04:15:28;14.45;;;3.03;;
71730;SDS011;65964;43.496;3.710;2023-03-14T04:17:57;11.35;;;2.45;;
71730;SDS011;65964;43.496;3.710;2023-03-14T04:20:24;11.32;;;2.45;;
71730;SDS011;65964;43.496;3.710;2023-03-14T04:22:49;9.65;;;2.13;;
71730;SDS011;65964;43.496;3.710;2023-03-14T04:25:15;10.43;;;2.67;;
71730;SDS011;65964;43.496;3.710;2023-03-14T04:27:43;6.97;;;2.25;;
71730;SDS011;65964;43.496;3.710;2023-03-14T04:30:09;10.63;;;2.22;;
71730;SDS011;65964;43.496;3.710;2023-03-14T04:32:36;7.38;;;1.92;;
71730;SDS011;65964;43.496;3.710;2023-03-14T04:35:04;9.43;;;2.53;;
71730;SDS011;65964;43.496;3.710;2023-03-14T04:37:30;10.40;;;2.28;;
71730;SDS011;65964;43.496;3.710;2023-03-14T04:39:56;9.80;;;2.22;;
71730;SDS011;65964;43.496;3.710;2023-03-14T04:42:22;7.93;;;1.98;;
71730;SDS011;65964;43.496;3.710;2023-03-14T04:44:48;5.35;;;1.67;;
71730;SDS011;65964;43.496;3.710;2023-03-14T04:47:15;8.35;;;2.00;;
71730;SDS011;65964;43.496;3.710;2023-03-14T04:49:41;7.90;;;2.10;;
71730;SDS011;65964;43.496;3.710;2023-03-14T04:52:07;9.52;;;2.10;;
71730;SDS011;65964;43.496;3.710;2023-03-14T04:54:33;7.97;;;2.03;;
71730;SDS011;65964;43.496;3.710;2023-03-14T04:56:59;6.88;;;1.90;;
71730;SDS011;65964;43.496;3.710;2023-03-14T04:59:25;9.18;;;2.08;;
71730;SDS011;65964;43.496;3.710;2023-03-14T05:01:51;8.10;;;2.30;;
71730;SDS011;65964;43.496;3.710;2023-03-14T05:04:17;9.27;;;2.50;;
71730;SDS011;65964;43.496;3.710;2023-03-14T05:06:43;9.20;;;2.50;;
71730;SDS011;65964;43.496;3.710;2023-03-14T05:09:09;11.40;;;2.42;;
71730;SDS011;65964;43.496;3.710;2023-03-14T05:11:35;8.93;;;2.28;;
71730;SDS011;65964;43.496;3.710;2023-03-14T05:14:01;11.88;;;2.35;;
71730;SDS011;65964;43.496;3.710;2023-03-14T05:16:27;9.25;;;2.10;;
71730;SDS011;65964;43.496;3.710;2023-03-14T05:18:53;10.32;;;2.42;;
71730;SDS011;65964;43.496;3.710;2023-03-14T05:21:19;9.32;;;2.45;;
71730;SDS011;65964;43.496;3.710;2023-03-14T05:23:45;11.27;;;2.38;;
71730;SDS011;65964;43.496;3.710;2023-03-14T05:26:11;10.75;;;2.33;;
71730;SDS011;65964;43.496;3.710;2023-03-14T05:28:37;10.35;;;2.50;;
71730;SDS011;65964;43.496;3.710;2023-03-14T05:31:06;8.77;;;2.30;;
71730;SDS011;65964;43.496;3.710;2023-03-14T05:33:33;14.93;;;2.80;;
71730;SDS011;65964;43.496;3.710;2023-03-14T05:35:59;7.95;;;2.08;;
71730;SDS011;65964;43.496;3.710;2023-03-14T05:38:25;6.82;;;2.30;;
71730;SDS011;65964;43.496;3.710;2023-03-14T05:40:51;8.55;;;2.20;;
71730;SDS011;65964;43.496;3.710;2023-03-14T05:43:17;12.15;;;2.47;;
71730;SDS011;65964;43.496;3.710;2023-03-14T05:45:43;15.48;;;3.22;;
71730;SDS011;65964;43.496;3.710;2023-03-14T05:48:09;10.35;;;2.35;;
71730;SDS011;65964;43.496;3.710;2023-03-14T05:50:35;11.48;;;2.60;;
71730;SDS011;65964;43.496;3.710;2023-03-14T05:53:01;19.27;;;3.42;;
71730;SDS011;65964;43.496;3.710;2023-03-14T05:55:27;12.85;;;2.45;;
71730;SDS011;65964;43.496;3.710;2023-03-14T05:57:53;8.77;;;2.10;;
71730;SDS011;65964;43.496;3.710;2023-03-14T06:00:20;7.20;;;1.95;;
71730;SDS011;65964;43.496;3.710;2023-03-14T06:02:46;12.15;;;1.92;;
71730;SDS011;65964;43.496;3.710;2023-03-14T06:05:12;10.00;;;2.03;;
71730;SDS011;65964;43.496;3.710;2023-03-14T06:07:38;11.35;;;1.80;;
71730;SDS011;65964;43.496;3.710;2023-03-14T06:10:04;6.70;;;1.67;;
71730;SDS011;65964;43.496;3.710;2023-03-14T06:12:30;10.02;;;2.17;;
71730;SDS011;65964;43.496;3.710;2023-03-14T06:14:56;6.05;;;2.00;;
71730;SDS011;65964;43.496;3.710;2023-03-14T06:17:23;8.02;;;2.20;;
71730;SDS011;65964;43.496;3.710;2023-03-14T06:19:49;7.13;;;1.85;;
71730;SDS011;65964;43.496;3.710;2023-03-14T06:22:15;11.20;;;1.90;;
71730;SDS011;65964;43.496;3.710;2023-03-14T06:24:41;10.18;;;1.88;;
71730;SDS011;65964;43.496;3.710;2023-03-14T06:27:07;8.90;;;1.92;;
71730;SDS011;65964;43.496;3.710;2023-03-14T06:29:33;13.52;;;2.40;;
71730;SDS011;65964;43.496;3.710;2023-03-14T06:31:59;18.38;;;2.90;;
71730;SDS011;65964;43.496;3.710;2023-03-14T06:34:25;20.42;;;2.80;;
71730;SDS011;65964;43.496;3.710;2023-03-14T06:36:51;8.88;;;1.67;;
71730;SDS011;65964;43.496;3.710;2023-03-14T06:39:17;13.95;;;2.63;;
71730;SDS011;65964;43.496;3.710;2023-03-14T06:41:43;9.05;;;2.00;;
71730;SDS011;65964;43.496;3.710;2023-03-14T06:44:09;8.77;;;1.75;;
71730;SDS011;65964;43.496;3.710;2023-03-14T06:46:35;11.00;;;1.98;;
71730;SDS011;65964;43.496;3.710;2023-03-14T06:49:01;10.48;;;2.00;;
71730;SDS011;65964;43.496;3.710;2023-03-14T06:51:27;12.40;;;2.03;;
71730;SDS011;65964;43.496;3.710;2023-03-14T06:53:53;8.93;;;2.15;;
71730;SDS011;65964;43.496;3.710;2023-03-14T06:56:19;15.38;;;2.65;;
71730;SDS011;65964;43.496;3.710;2023-03-14T06:58:45;7.40;;;1.95;;
71730;SDS011;65964;43.496;3.710;2023-03-14T07:01:22;15.63;;;2.40;;
71730;SDS011;65964;43.496;3.710;2023-03-14T07:03:49;14.38;;;2.67;;
71730;SDS011;65964;43.496;3.710;2023-03-14T07:06:15;19.30;;;3.08;;
71730;SDS011;65964;43.496;3.710;2023-03-14T07:08:41;13.40;;;2.65;;
71730;SDS011;65964;43.496;3.710;2023-03-14T07:11:07;13.75;;;2.33;;
71730;SDS011;65964;43.496;3.710;2023-03-14T07:13:35;9.18;;;2.30;;
71730;SDS011;65964;43.496;3.710;2023-03-14T07:16:02;17.00;;;2.92;;
71730;SDS011;65964;43.496;3.710;2023-03-14T07:18:28;13.73;;;2.47;;
71730;SDS011;65964;43.496;3.710;2023-03-14T07:20:54;8.88;;;2.10;;
71730;SDS011;65964;43.496;3.710;2023-03-14T07:23:20;18.13;;;2.40;;
71730;SDS011;65964;43.496;3.710;2023-03-14T07:25:46;14.25;;;3.67;;
71730;SDS011;65964;43.496;3.710;2023-03-14T07:28:12;17.25;;;3.90;;
71730;SDS011;65964;43.496;3.710;2023-03-14T07:30:38;19.05;;;4.32;;
71730;SDS011;65964;43.496;3.710;2023-03-14T07:33:04;13.23;;;3.33;;
71730;SDS011;65964;43.496;3.710;2023-03-14T07:35:30;10.05;;;2.03;;
71730;SDS011;65964;43.496;3.710;2023-03-14T07:37:56;14.68;;;2.58;;
71730;SDS011;65964;43.496;3.710;2023-03-14T07:40:22;11.85;;;2.30;;
71730;SDS011;65964;43.496;3.710;2023-03-14T07:42:48;12.05;;;2.03;;
71730;SDS011;65964;43.496;3.710;2023-03-14T07:45:14;7.38;;;1.77;;
71730;SDS011;65964;43.496;3.710;2023-03-14T07:47:41;7.10;;;1.70;;
71730;SDS011;65964;43.496;3.710;2023-03-14T07:50:07;13.73;;;2.38;;
71730;SDS011;65964;43.496;3.710;2023-03-14T07:52:33;10.60;;;1.80;;
71730;SDS011;65964;43.496;3.710;2023-03-14T07:54:59;8.68;;;2.03;;
71730;SDS011;65964;43.496;3.710;2023-03-14T07:57:25;13.95;;;2.55;;
71730;SDS011;65964;43.496;3.710;2023-03-14T07:59:51;14.18;;;2.50;;
71730;SDS011;65964;43.496;3.710;2023-03-14T08:02:17;12.48;;;2.25;;
71730;SDS011;65964;43.496;3.710;2023-03-14T08:04:47;9.05;;;2.20;;
71730;SDS011;65964;43.496;3.710;2023-03-14T08:07:13;7.45;;;1.65;;
71730;SDS011;65964;43.496;3.710;2023-03-14T08:09:39;6.95;;;2.08;;
71730;SDS011;65964;43.496;3.710;2023-03-14T08:12:05;6.20;;;1.98;;
71730;SDS011;65964;43.496;3.710;2023-03-14T08:14:31;9.20;;;2.00;;
71730;SDS011;65964;43.496;3.710;2023-03-14T08:16:57;6.13;;;1.80;;
71730;SDS011;65964;43.496;3.710;2023-03-14T08:19:23;8.00;;;1.92;;
71730;SDS011;65964;43.496;3.710;2023-03-14T08:21:49;12.00;;;2.20;;
71730;SDS011;65964;43.496;3.710;2023-03-14T08:24:16;8.00;;;2.30;;
71730;SDS011;65964;43.496;3.710;2023-03-14T08:26:42;8.13;;;2.10;;
71730;SDS011;65964;43.496;3.710;2023-03-14T08:29:08;9.82;;;2.10;;
71730;SDS011;65964;43.496;3.710;2023-03-14T08:31:37;43.25;;;5.90;;
71730;SDS011;65964;43.496;3.710;2023-03-14T08:34:03;16.92;;;3.08;;
71730;SDS011;65964;43.496;3.710;2023-03-14T08:36:30;12.38;;;2.80;;
71730;SDS011;65964;43.496;3.710;2023-03-14T08:38:56;14.00;;;3.08;;
71730;SDS011;65964;43.496;3.710;2023-03-14T08:41:23;14.55;;;3.00;;
71730;SDS011;65964;43.496;3.710;2023-03-14T08:43:49;11.90;;;2.80;;
71730;SDS011;65964;43.496;3.710;2023-03-14T08:46:14;18.05;;;3.60;;
71730;SDS011;65964;43.496;3.710;2023-03-14T08:48:40;8.13;;;2.60;;
71730;SDS011;65964;43.496;3.710;2023-03-14T08:51:11;12.90;;;2.90;;
71730;SDS011;65964;43.496;3.710;2023-03-14T08:53:40;10.25;;;2.70;;
71730;SDS011;65964;43.496;3.710;2023-03-14T08:56:06;11.82;;;3.28;;
71730;SDS011;65964;43.496;3.710;2023-03-14T08:58:34;11.93;;;2.95;;
71730;SDS011;65964;43.496;3.710;2023-03-14T09:01:02;12.02;;;2.97;;
71730;SDS011;65964;43.496;3.710;2023-03-14T09:03:28;9.55;;;2.67;;
71730;SDS011;65964;43.496;3.710;2023-03-14T09:05:54;15.73;;;3.03;;
71730;SDS011;65964;43.496;3.710;2023-03-14T09:08:20;11.55;;;2.72;;
71730;SDS011;65964;43.496;3.710;2023-03-14T09:10:46;11.70;;;3.10;;
71730;SDS011;65964;43.496;3.710;2023-03-14T09:13:12;16.40;;;3.80;;
71730;SDS011;65964;43.496;3.710;2023-03-14T09:15:38;14.10;;;3.35;;
71730;SDS011;65964;43.496;3.710;2023-03-14T09:18:07;10.57;;;2.53;;
71730;SDS011;65964;43.496;3.710;2023-03-14T09:20:33;10.88;;;2.53;;
71730;SDS011;65964;43.496;3.710;2023-03-14T09:22:59;19.00;;;3.72;;
71730;SDS011;65964;43.496;3.710;2023-03-14T09:25:25;10.35;;;3.03;;
71730;SDS011;65964;43.496;3.710;2023-03-14T09:27:51;13.45;;;2.95;;
71730;SDS011;65964;43.496;3.710;2023-03-14T09:30:17;11.20;;;3.05;;
71730;SDS011;65964;43.496;3.710;2023-03-14T09:32:43;12.50;;;3.35;;
71730;SDS011;65964;43.496;3.710;2023-03-14T09:35:09;13.40;;;3.15;;
71730;SDS011;65964;43.496;3.710;2023-03-14T09:37:35;12.00;;;2.90;;
71730;SDS011;65964;43.496;3.710;2023-03-14T09:40:01;12.85;;;2.67;;
71730;SDS011;65964;43.496;3.710;2023-03-14T09:42:34;17.10;;;3.25;;
71730;SDS011;65964;43.496;3.710;2023-03-14T09:45:04;15.30;;;3.78;;
71730;SDS011;65964;43.496;3.710;2023-03-14T09:47:30;18.27;;;3.70;;
71730;SDS011;65964;43.496;3.710;2023-03-14T09:49:59;12.75;;;2.95;;
71730;SDS011;65964;43.496;3.710;2023-03-14T09:52:33;10.27;;;2.55;;
71730;SDS011;65964;43.496;3.710;2023-03-14T09:55:05;9.35;;;2.30;;
71730;SDS011;65964;43.496;3.710;2023-03-14T09:57:33;10.30;;;2.00;;
71730;SDS011;65964;43.496;3.710;2023-03-14T10:00:03;8.30;;;2.10;;
71730;SDS011;65964;43.496;3.710;2023-03-14T10:02:38;8.25;;;1.90;;
71730;SDS011;65964;43.496;3.710;2023-03-14T10:05:07;9.85;;;2.33;;
71730;SDS011;65964;43.496;3.710;2023-03-14T10:07:34;7.18;;;1.98;;
71730;SDS011;65964;43.496;3.710;2023-03-14T10:10:00;6.28;;;1.73;;
71730;SDS011;65964;43.496;3.710;2023-03-14T10:12:33;7.72;;;2.38;;
71730;SDS011;65964;43.496;3.710;2023-03-14T10:15:09;10.88;;;2.67;;
71730;SDS011;65964;43.496;3.710;2023-03-14T10:17:40;10.57;;;2.88;;
71730;SDS011;65964;43.496;3.710;2023-03-14T10:20:06;11.00;;;2.75;;
71730;SDS011;65964;43.496;3.710;2023-03-14T10:22:35;33.00;;;5.85;;
71730;SDS011;65964;43.496;3.710;2023-03-14T10:25:02;11.95;;;2.90;;
71730;SDS011;65964;43.496;3.710;2023-03-14T10:27:31;12.38;;;3.17;;
71730;SDS011;65964;43.496;3.710;2023-03-14T10:30:01;13.57;;;3.60;;
71730;SDS011;65964;43.496;3.710;2023-03-14T10:32:28;12.75;;;3.60;;
71730;SDS011;65964;43.496;3.710;2023-03-14T10:37:33;14.25;;;3.50;;
71730;SDS011;65964;43.496;3.710;2023-03-14T10:40:00;15.18;;;3.63;;
71730;SDS011;65964;43.496;3.710;2023-03-14T10:42:30;13.32;;;3.30;;
71730;SDS011;65964;43.496;3.710;2023-03-14T10:45:00;13.48;;;3.45;;
71730;SDS011;65964;43.496;3.710;2023-03-14T10:47:27;9.50;;;2.92;;
71730;SDS011;65964;43.496;3.710;2023-03-14T10:49:54;16.02;;;4.55;;
71730;SDS011;65964;43.496;3.710;2023-03-14T10:54:59;17.70;;;3.92;;
71730;SDS011;65964;43.496;3.710;2023-03-14T10:57:26;17.90;;;3.42;;
71730;SDS011;65964;43.496;3.710;2023-03-14T10:59:53;12.05;;;3.40;;
71730;SDS011;65964;43.496;3.710;2023-03-14T11:05:27;13.77;;;3.08;;
71730;SDS011;65964;43.496;3.710;2023-03-14T11:07:45;8.73;;;2.85;;
71730;SDS011;65964;43.496;3.710;2023-03-14T11:10:24;11.63;;;2.70;;
71730;SDS011;65964;43.496;3.710;2023-03-14T11:12:58;9.93;;;3.13;;
71730;SDS011;65964;43.496;3.710;2023-03-14T11:28:23;6.03;;;2.33;;
71730;SDS011;65964;43.496;3.710;2023-03-14T11:30:52;8.05;;;2.50;;
71730;SDS011;65964;43.496;3.710;2023-03-14T11:33:22;9.55;;;3.53;;
71730;SDS011;65964;43.496;3.710;2023-03-14T11:36:03;7.60;;;2.88;;
71730;SDS011;65964;43.496;3.710;2023-03-14T11:40:58;8.05;;;2.40;;
71730;SDS011;65964;43.496;3.710;2023-03-14T11:43:28;7.95;;;2.88;;
71730;SDS011;65964;43.496;3.710;2023-03-14T11:45:57;8.43;;;2.10;;
71730;SDS011;65964;43.496;3.710;2023-03-14T11:50:58;9.48;;;2.75;;
71730;SDS011;65964;43.496;3.710;2023-03-14T11:54:08;10.95;;;2.63;;
71730;SDS011;65964;43.496;3.710;2023-03-14T11:56:19;8.50;;;2.58;;
71730;SDS011;65964;43.496;3.710;2023-03-14T11:58:54;9.80;;;2.95;;
71730;SDS011;65964;43.496;3.710;2023-03-14T12:01:21;11.75;;;3.45;;
71730;SDS011;65964;43.496;3.710;2023-03-14T12:04:09;11.73;;;3.28;;
71730;SDS011;65964;43.496;3.710;2023-03-14T12:06:40;15.73;;;3.30;;
71730;SDS011;65964;43.496;3.710;2023-03-14T12:09:11;11.02;;;3.10;;
71730;SDS011;65964;43.496;3.710;2023-03-14T12:11:48;10.80;;;3.38;;
71730;SDS011;65964;43.496;3.710;2023-03-14T12:16:46;11.27;;;3.08;;
71730;SDS011;65964;43.496;3.710;2023-03-14T12:19:14;8.73;;;2.50;;
71730;SDS011;65964;43.496;3.710;2023-03-14T12:22:00;10.65;;;3.10;;
71730;SDS011;65964;43.496;3.710;2023-03-14T12:24:31;10.82;;;3.45;;
71730;SDS011;65964;43.496;3.710;2023-03-14T12:26:59;11.52;;;3.88;;
71730;SDS011;65964;43.496;3.710;2023-03-14T12:29:26;13.55;;;4.63;;
71730;SDS011;65964;43.496;3.710;2023-03-14T12:34:28;11.80;;;3.13;;
71730;SDS011;65964;43.496;3.710;2023-03-14T12:36:56;13.23;;;3.15;;
71730;SDS011;65964;43.496;3.710;2023-03-14T12:42:05;12.23;;;3.53;;
71730;SDS011;65964;43.496;3.710;2023-03-14T12:44:38;8.35;;;2.90;;
71730;SDS011;65964;43.496;3.710;2023-03-14T12:49:52;10.80;;;3.05;;
71730;SDS011;65964;43.496;3.710;2023-03-14T12:52:29;14.93;;;3.10;;
71730;SDS011;65964;43.496;3.710;2023-03-14T12:55:05;10.88;;;3.55;;
71730;SDS011;65964;43.496;3.710;2023-03-14T13:03:24;15.02;;;3.50;;
71730;SDS011;65964;43.496;3.710;2023-03-14T13:05:59;12.68;;;3.22;;
71730;SDS011;65964;43.496;3.710;2023-03-14T13:10:58;9.77;;;2.80;;
71730;SDS011;65964;43.496;3.710;2023-03-14T13:13:25;8.43;;;2.53;;
71730;SDS011;65964;43.496;3.710;2023-03-14T13:15:56;11.10;;;3.13;;
71730;SDS011;65964;43.496;3.710;2023-03-14T13:21:05;9.10;;;2.50;;
71730;SDS011;65964;43.496;3.710;2023-03-14T13:23:33;11.85;;;2.72;;
71730;SDS011;65964;43.496;3.710;2023-03-14T13:26:00;10.60;;;2.90;;
71730;SDS011;65964;43.496;3.710;2023-03-14T13:28:26;8.85;;;2.85;;
71730;SDS011;65964;43.496;3.710;2023-03-14T13:30:57;6.68;;;2.65;;
71730;SDS011;65964;43.496;3.710;2023-03-14T13:33:23;10.75;;;2.90;;
71730;SDS011;65964;43.496;3.710;2023-03-14T13:35:57;13.13;;;3.13;;
71730;SDS011;65964;43.496;3.710;2023-03-14T13:38:24;10.10;;;3.28;;
71730;SDS011;65964;43.496;3.710;2023-03-14T13:40:51;9.48;;;3.17;;
71730;SDS011;65964;43.496;3.710;2023-03-14T13:43:25;13.15;;;2.83;;
71730;SDS011;65964;43.496;3.710;2023-03-14T13:46:33;11.05;;;3.08;;
71730;SDS011;65964;43.496;3.710;2023-03-14T13:48:44;10.63;;;3.40;;
71730;SDS011;65964;43.496;3.710;2023-03-14T13:51:11;9.15;;;2.90;;
71730;SDS011;65964;43.496;3.710;2023-03-14T13:53:51;10.05;;;2.30;;
71730;SDS011;65964;43.496;3.710;2023-03-14T13:56:18;10.60;;;2.47;;
71730;SDS011;65964;43.496;3.710;2023-03-14T13:58:45;15.18;;;3.22;;
71730;SDS011;65964;43.496;3.710;2023-03-14T14:01:13;11.43;;;3.63;;
71730;SDS011;65964;43.496;3.710;2023-03-14T14:03:40;9.40;;;3.08;;
71730;SDS011;65964;43.496;3.710;2023-03-14T14:06:08;10.70;;;2.85;;
71730;SDS011;65964;43.496;3.710;2023-03-14T14:08:36;10.38;;;3.35;;
71730;SDS011;65964;43.496;3.710;2023-03-14T14:11:05;11.15;;;3.15;;
71730;SDS011;65964;43.496;3.710;2023-03-14T14:13:32;6.70;;;2.50;;
71730;SDS011;65964;43.496;3.710;2023-03-14T14:15:59;7.10;;;2.20;;
71730;SDS011;65964;43.496;3.710;2023-03-14T14:18:26;7.50;;;2.20;;
71730;SDS011;65964;43.496;3.710;2023-03-14T14:20:52;6.65;;;2.13;;
71730;SDS011;65964;43.496;3.710;2023-03-14T14:23:20;4.43;;;2.05;;
71730;SDS011;65964;43.496;3.710;2023-03-14T14:25:50;4.22;;;1.65;;
71730;SDS011;65964;43.496;3.710;2023-03-14T14:33:26;9.25;;;2.42;;
71730;SDS011;65964;43.496;3.710;2023-03-14T14:35:54;7.68;;;2.20;;
71730;SDS011;65964;43.496;3.710;2023-03-14T14:38:20;7.50;;;2.42;;
71730;SDS011;65964;43.496;3.710;2023-03-14T14:40:59;7.20;;;2.10;;
71730;SDS011;65964;43.496;3.710;2023-03-14T14:43:27;7.47;;;2.20;;
71730;SDS011;65964;43.496;3.710;2023-03-14T14:45:54;10.93;;;2.63;;
71730;SDS011;65964;43.496;3.710;2023-03-14T14:48:22;9.52;;;2.60;;
71730;SDS011;65964;43.496;3.710;2023-03-14T14:50:59;8.93;;;2.42;;
71730;SDS011;65964;43.496;3.710;2023-03-14T14:53:38;9.88;;;2.95;;
71730;SDS011;65964;43.496;3.710;2023-03-14T14:56:18;8.98;;;2.75;;
71730;SDS011;65964;43.496;3.710;2023-03-14T14:58:47;5.80;;;2.15;;
71730;SDS011;65964;43.496;3.710;2023-03-14T15:01:17;6.20;;;2.40;;
71730;SDS011;65964;43.496;3.710;2023-03-14T15:03:44;9.05;;;2.80;;
71730;SDS011;65964;43.496;3.710;2023-03-14T15:06:12;9.00;;;2.40;;
71730;SDS011;65964;43.496;3.710;2023-03-14T15:08:38;6.22;;;1.90;;
71730;SDS011;65964;43.496;3.710;2023-03-14T15:11:04;4.55;;;1.60;;
71730;SDS011;65964;43.496;3.710;2023-03-14T15:13:31;5.35;;;1.80;;
71730;SDS011;65964;43.496;3.710;2023-03-14T15:15:57;7.57;;;1.92;;
71730;SDS011;65964;43.496;3.710;2023-03-14T15:18:24;4.90;;;1.60;;
71730;SDS011;65964;43.496;3.710;2023-03-14T15:20:50;6.20;;;1.63;;
71730;SDS011;65964;43.496;3.710;2023-03-14T15:23:21;5.25;;;1.80;;
71730;SDS011;65964;43.496;3.710;2023-03-14T15:25:47;4.60;;;2.08;;
71730;SDS011;65964;43.496;3.710;2023-03-14T15:28:14;6.65;;;2.42;;
71730;SDS011;65964;43.496;3.710;2023-03-14T15:30:41;5.32;;;1.90;;
71730;SDS011;65964;43.496;3.710;2023-03-14T15:33:07;8.23;;;2.58;;
71730;SDS011;65964;43.496;3.710;2023-03-14T15:35:35;10.55;;;2.50;;
71730;SDS011;65964;43.496;3.710;2023-03-14T15:38:02;8.80;;;2.20;;
71730;SDS011;65964;43.496;3.710;2023-03-14T15:40:28;4.32;;;1.48;;
71730;SDS011;65964;43.496;3.710;2023-03-14T15:42:54;4.55;;;1.38;;
71730;SDS011;65964;43.496;3.710;2023-03-14T15:45:20;4.43;;;1.60;;